Tropical Cyclones
[Index]
Main Index Home Page Stock Weather Photos Extreme Storms Discussion Storm News and Storm Chasing Reports Tropical Cyclones / Hurricanes / Typhoons Weather Data and Links Wild Fires / Bushfires Weather Observation Techniques Weather Picture Catalogue Tornado Pictures and Reports Stock Video Footage and DVDs for sale
Season 2005-2006 Tropical Cyclone FLOYD Track Map
Season 2005-2006 Summaries (Operational Data): [AU] [SIO] [SPAC] [SH]
<<- Previous TC | 2005-2006 Season | Next TC ->>

click for intensity scale information  Lat/long Grid: Show Hide

 Date Labels: Show Hide

Operational Tropical Cyclone Data : JTWC Advisories | BoM Warnings

Name: FLOYD
Number: 0619

19 Mar 2006 09:00 UTC to 27 Mar 2006 11:00 UTC

    date/time    lat    long     hPa   cat  kts
2006-03-19 09   11.4   118.5    1000         25          
2006-03-19 12   11.4   118.3    1000         25          
2006-03-19 18   11.7   118.0    1000         25          
2006-03-20 00   11.4   117.5    1002         25          
2006-03-20 06   11.4   116.7    1000         25          
2006-03-20 12   11.5   116.5    1000         25          
2006-03-20 18   11.7   116.4     998         30          
2006-03-20 21   11.9   116.3     994    1    35          
2006-03-21 00   12.1   116.3     990    1    35          
2006-03-21 06   12.5   116.0     988    1    40          
2006-03-21 12   12.7   115.0     984    1    45          
2006-03-21 18   13.1   114.2     980    2    50          
2006-03-22 00   13.3   113.6     980    2    50          
2006-03-22 06   13.3   112.8     980    2    50          
2006-03-22 12   13.1   112.0     975    2    50          
2006-03-22 18   13.2   111.2     970    2    60          
2006-03-23 00   13.2   110.3     960    3    70          
2006-03-23 06   13.5   109.6     960    3    70          
2006-03-23 12   14.0   109.0     940    4    90          
2006-03-23 18   14.5   108.5     920    4   100          
2006-03-24 00   15.2   108.1     915    4   105          
2006-03-24 06   15.8   108.3     920    4   100          
2006-03-24 12   16.5   108.4     930    4    95          
2006-03-24 18   17.1   108.5     940    4    90          
2006-03-25 00   17.7   109.2     945    4    90          
2006-03-25 06   18.3   110.1     955    3    85          
2006-03-25 12   18.8   111.1     955    3    80          
2006-03-25 18   19.1   111.5     960    3    75          
2006-03-26 00   19.1   112.2     972    2    55          
2006-03-26 06   19.5   112.3     976    2    55          
2006-03-26 12   19.8   112.6     980    2    50          
2006-03-26 18   20.2   112.6     985    1    45          
2006-03-27 00   20.6   111.8     986    1    40          
2006-03-27 02   20.9   111.6     994         30          
2006-03-27 11   22.7   111.3                 25          
Winds are 10-min average.

Tropical cyclone tracks developed by Michael Bath using operational warnings and advisories and Google Maps.


[Australian Severe Weather index] [Copyright Notice] [Email Contacts] [Search This Site] [Privacy Policy]
Document: tropical_cyclone_floyd.htm Updated: 28 May 2013